sensor_id;sensor_type;location;lat;lon;timestamp;temperature;humidity
612;DHT22;293;53.888;11.464;2023-06-14T00:00:06;15.90;99.90
612;DHT22;293;53.888;11.464;2023-06-14T00:02:33;15.90;99.90
612;DHT22;293;53.888;11.464;2023-06-14T00:05:00;15.90;99.90
612;DHT22;293;53.888;11.464;2023-06-14T00:07:37;15.90;99.90
612;DHT22;293;53.888;11.464;2023-06-14T00:10:06;15.80;99.90
612;DHT22;293;53.888;11.464;2023-06-14T00:12:33;15.80;99.90
612;DHT22;293;53.888;11.464;2023-06-14T00:15:00;15.70;99.90
612;DHT22;293;53.888;11.464;2023-06-14T00:17:28;15.70;99.90
612;DHT22;293;53.888;11.464;2023-06-14T00:19:56;15.70;99.90
612;DHT22;293;53.888;11.464;2023-06-14T00:22:23;15.70;99.90
612;DHT22;293;53.888;11.464;2023-06-14T00:24:51;15.70;99.90
612;DHT22;293;53.888;11.464;2023-06-14T00:27:19;15.70;99.90
612;DHT22;293;53.888;11.464;2023-06-14T00:29:46;15.70;99.90
612;DHT22;293;53.888;11.464;2023-06-14T00:32:13;15.70;99.90
612;DHT22;293;53.888;11.464;2023-06-14T00:34:40;15.70;99.90
612;DHT22;293;53.888;11.464;2023-06-14T00:37:06;15.70;99.90
612;DHT22;293;53.888;11.464;2023-06-14T00:39:34;15.60;99.90
612;DHT22;293;53.888;11.464;2023-06-14T00:42:01;15.60;99.90
612;DHT22;293;53.888;11.464;2023-06-14T00:44:29;15.60;99.90
612;DHT22;293;53.888;11.464;2023-06-14T00:46:56;15.60;99.90
612;DHT22;293;53.888;11.464;2023-06-14T00:49:23;15.50;99.90
612;DHT22;293;53.888;11.464;2023-06-14T00:51:50;15.50;99.90
612;DHT22;293;53.888;11.464;2023-06-14T00:54:17;15.50;99.90
612;DHT22;293;53.888;11.464;2023-06-14T00:56:44;15.50;99.90
612;DHT22;293;53.888;11.464;2023-06-14T00:59:12;15.40;99.90
612;DHT22;293;53.888;11.464;2023-06-14T01:01:42;15.40;99.90
612;DHT22;293;53.888;11.464;2023-06-14T01:04:09;15.30;99.90
612;DHT22;293;53.888;11.464;2023-06-14T01:06:41;15.30;99.90
612;DHT22;293;53.888;11.464;2023-06-14T01:09:15;15.20;99.90
612;DHT22;293;53.888;11.464;2023-06-14T01:11:49;15.20;99.90
612;DHT22;293;53.888;11.464;2023-06-14T01:14:17;15.30;99.90
612;DHT22;293;53.888;11.464;2023-06-14T01:16:46;15.20;99.90
612;DHT22;293;53.888;11.464;2023-06-14T01:19:18;15.20;99.90
612;DHT22;293;53.888;11.464;2023-06-14T01:21:48;15.20;99.90
612;DHT22;293;53.888;11.464;2023-06-14T01:24:17;15.20;99.90
612;DHT22;293;53.888;11.464;2023-06-14T01:26:49;15.20;99.90
612;DHT22;293;53.888;11.464;2023-06-14T01:29:17;15.20;99.90
612;DHT22;293;53.888;11.464;2023-06-14T01:31:44;15.20;99.90
612;DHT22;293;53.888;11.464;2023-06-14T01:34:12;15.20;99.90
612;DHT22;293;53.888;11.464;2023-06-14T01:36:41;15.10;99.90
612;DHT22;293;53.888;11.464;2023-06-14T01:39:08;15.10;99.90
612;DHT22;293;53.888;11.464;2023-06-14T01:41:39;15.10;99.90
612;DHT22;293;53.888;11.464;2023-06-14T01:44:06;15.20;99.90
612;DHT22;293;53.888;11.464;2023-06-14T01:46:33;15.10;99.90
612;DHT22;293;53.888;11.464;2023-06-14T01:49:00;15.10;99.90
612;DHT22;293;53.888;11.464;2023-06-14T01:51:27;15.10;99.90
612;DHT22;293;53.888;11.464;2023-06-14T01:53:54;15.10;99.90
612;DHT22;293;53.888;11.464;2023-06-14T01:56:22;15.10;99.90
612;DHT22;293;53.888;11.464;2023-06-14T01:58:50;15.10;99.90
612;DHT22;293;53.888;11.464;2023-06-14T02:01:18;15.10;99.90
612;DHT22;293;53.888;11.464;2023-06-14T02:03:46;15.10;99.90
612;DHT22;293;53.888;11.464;2023-06-14T02:06:13;15.20;99.90
612;DHT22;293;53.888;11.464;2023-06-14T02:08:41;15.20;99.90
612;DHT22;293;53.888;11.464;2023-06-14T02:11:08;15.10;99.90
612;DHT22;293;53.888;11.464;2023-06-14T02:13:35;15.10;99.90
612;DHT22;293;53.888;11.464;2023-06-14T02:16:03;15.10;99.90
612;DHT22;293;53.888;11.464;2023-06-14T02:18:31;15.10;99.90
612;DHT22;293;53.888;11.464;2023-06-14T02:20:57;15.10;99.90
612;DHT22;293;53.888;11.464;2023-06-14T02:23:24;15.00;99.90
612;DHT22;293;53.888;11.464;2023-06-14T02:25:51;15.00;99.90
612;DHT22;293;53.888;11.464;2023-06-14T02:28:18;15.00;99.90
612;DHT22;293;53.888;11.464;2023-06-14T02:30:45;15.00;99.90
612;DHT22;293;53.888;11.464;2023-06-14T02:33:14;15.00;99.90
612;DHT22;293;53.888;11.464;2023-06-14T02:35:41;15.00;99.90
612;DHT22;293;53.888;11.464;2023-06-14T02:38:08;15.00;99.90
612;DHT22;293;53.888;11.464;2023-06-14T02:40:35;14.90;99.90
612;DHT22;293;53.888;11.464;2023-06-14T02:43:02;14.90;99.90
612;DHT22;293;53.888;11.464;2023-06-14T02:45:28;14.90;99.90
612;DHT22;293;53.888;11.464;2023-06-14T02:47:55;14.80;99.90
612;DHT22;293;53.888;11.464;2023-06-14T02:50:24;14.80;99.90
612;DHT22;293;53.888;11.464;2023-06-14T02:52:51;14.80;99.90
612;DHT22;293;53.888;11.464;2023-06-14T02:55:21;14.80;99.90
612;DHT22;293;53.888;11.464;2023-06-14T02:57:48;14.80;99.90
612;DHT22;293;53.888;11.464;2023-06-14T03:00:15;14.90;99.90
612;DHT22;293;53.888;11.464;2023-06-14T03:02:42;14.90;99.90
612;DHT22;293;53.888;11.464;2023-06-14T03:05:10;14.90;99.90
612;DHT22;293;53.888;11.464;2023-06-14T03:07:38;15.00;99.90
612;DHT22;293;53.888;11.464;2023-06-14T03:10:07;15.00;99.90
612;DHT22;293;53.888;11.464;2023-06-14T03:12:35;15.00;99.90
612;DHT22;293;53.888;11.464;2023-06-14T03:15:02;15.00;99.90
612;DHT22;293;53.888;11.464;2023-06-14T03:17:30;15.00;99.90
612;DHT22;293;53.888;11.464;2023-06-14T03:19:59;15.10;99.90
612;DHT22;293;53.888;11.464;2023-06-14T03:22:26;15.10;99.90
612;DHT22;293;53.888;11.464;2023-06-14T03:24:55;15.10;99.90
612;DHT22;293;53.888;11.464;2023-06-14T03:27:22;15.20;99.90
612;DHT22;293;53.888;11.464;2023-06-14T03:29:49;15.20;99.90
612;DHT22;293;53.888;11.464;2023-06-14T03:32:15;15.20;99.90
612;DHT22;293;53.888;11.464;2023-06-14T03:34:42;15.30;99.90
612;DHT22;293;53.888;11.464;2023-06-14T03:37:10;15.50;99.90
612;DHT22;293;53.888;11.464;2023-06-14T03:39:37;15.80;99.90
612;DHT22;293;53.888;11.464;2023-06-14T03:42:13;16.70;99.90
612;DHT22;293;53.888;11.464;2023-06-14T03:44:39;17.80;99.90
612;DHT22;293;53.888;11.464;2023-06-14T03:47:07;18.90;99.90
612;DHT22;293;53.888;11.464;2023-06-14T03:49:34;19.90;99.50
612;DHT22;293;53.888;11.464;2023-06-14T03:52:02;20.70;97.50
612;DHT22;293;53.888;11.464;2023-06-14T03:54:30;21.60;95.80
612;DHT22;293;53.888;11.464;2023-06-14T03:56:58;22.40;94.00
612;DHT22;293;53.888;11.464;2023-06-14T03:59:26;23.30;91.80
612;DHT22;293;53.888;11.464;2023-06-14T04:01:54;24.10;90.10
612;DHT22;293;53.888;11.464;2023-06-14T04:04:21;24.90;87.00
612;DHT22;293;53.888;11.464;2023-06-14T04:06:54;25.60;83.40
612;DHT22;293;53.888;11.464;2023-06-14T04:09:22;26.30;80.70
612;DHT22;293;53.888;11.464;2023-06-14T04:11:50;26.90;77.80
612;DHT22;293;53.888;11.464;2023-06-14T04:14:17;27.40;75.10
612;DHT22;293;53.888;11.464;2023-06-14T04:16:46;27.80;73.40
612;DHT22;293;53.888;11.464;2023-06-14T04:19:12;28.20;71.90
612;DHT22;293;53.888;11.464;2023-06-14T04:21:39;28.60;70.40
612;DHT22;293;53.888;11.464;2023-06-14T04:24:06;28.90;69.10
612;DHT22;293;53.888;11.464;2023-06-14T04:26:39;29.20;68.00
612;DHT22;293;53.888;11.464;2023-06-14T04:29:06;29.20;67.00
612;DHT22;293;53.888;11.464;2023-06-14T04:31:33;29.20;67.10
612;DHT22;293;53.888;11.464;2023-06-14T04:34:04;29.10;67.10
612;DHT22;293;53.888;11.464;2023-06-14T04:36:32;28.90;66.50
612;DHT22;293;53.888;11.464;2023-06-14T04:39:00;28.70;66.20
612;DHT22;293;53.888;11.464;2023-06-14T04:41:28;28.60;66.50
612;DHT22;293;53.888;11.464;2023-06-14T04:43:56;28.60;66.80
612;DHT22;293;53.888;11.464;2023-06-14T04:46:27;28.80;65.50
612;DHT22;293;53.888;11.464;2023-06-14T04:48:54;29.30;66.10
612;DHT22;293;53.888;11.464;2023-06-14T04:51:23;29.70;64.00
612;DHT22;293;53.888;11.464;2023-06-14T04:53:55;30.40;63.20
612;DHT22;293;53.888;11.464;2023-06-14T04:56:23;31.00;63.00
612;DHT22;293;53.888;11.464;2023-06-14T04:58:51;31.30;59.70
612;DHT22;293;53.888;11.464;2023-06-14T05:01:18;31.90;59.30
612;DHT22;293;53.888;11.464;2023-06-14T05:03:46;32.20;58.20
612;DHT22;293;53.888;11.464;2023-06-14T05:06:14;32.40;57.00
612;DHT22;293;53.888;11.464;2023-06-14T05:08:44;32.50;55.90
612;DHT22;293;53.888;11.464;2023-06-14T05:11:11;32.70;55.80
612;DHT22;293;53.888;11.464;2023-06-14T05:13:37;33.00;55.50
612;DHT22;293;53.888;11.464;2023-06-14T05:16:05;33.70;54.70
612;DHT22;293;53.888;11.464;2023-06-14T05:18:33;34.30;53.50
612;DHT22;293;53.888;11.464;2023-06-14T05:21:00;35.00;51.50
612;DHT22;293;53.888;11.464;2023-06-14T05:23:27;35.60;50.10
612;DHT22;293;53.888;11.464;2023-06-14T05:25:56;36.30;48.00
612;DHT22;293;53.888;11.464;2023-06-14T05:28:23;37.00;46.70
612;DHT22;293;53.888;11.464;2023-06-14T05:30:50;38.00;44.10
612;DHT22;293;53.888;11.464;2023-06-14T05:33:17;38.00;44.50
612;DHT22;293;53.888;11.464;2023-06-14T05:35:44;38.50;43.60
612;DHT22;293;53.888;11.464;2023-06-14T05:38:11;38.80;42.90
612;DHT22;293;53.888;11.464;2023-06-14T05:40:38;39.10;42.50
612;DHT22;293;53.888;11.464;2023-06-14T05:43:06;39.20;42.60
612;DHT22;293;53.888;11.464;2023-06-14T05:45:33;39.80;41.50
612;DHT22;293;53.888;11.464;2023-06-14T05:48:00;39.80;42.20
612;DHT22;293;53.888;11.464;2023-06-14T05:50:26;40.10;42.00
612;DHT22;293;53.888;11.464;2023-06-14T05:52:53;40.20;41.00
612;DHT22;293;53.888;11.464;2023-06-14T05:55:20;40.20;40.30
612;DHT22;293;53.888;11.464;2023-06-14T05:57:47;40.30;40.60
612;DHT22;293;53.888;11.464;2023-06-14T06:00:17;40.30;40.70
612;DHT22;293;53.888;11.464;2023-06-14T06:02:45;40.10;40.10
612;DHT22;293;53.888;11.464;2023-06-14T06:05:13;39.80;41.00
612;DHT22;293;53.888;11.464;2023-06-14T06:07:40;39.60;41.20
612;DHT22;293;53.888;11.464;2023-06-14T06:10:10;39.40;41.40
612;DHT22;293;53.888;11.464;2023-06-14T06:12:37;39.40;41.20
612;DHT22;293;53.888;11.464;2023-06-14T06:15:04;39.50;40.80
612;DHT22;293;53.888;11.464;2023-06-14T06:17:33;39.80;39.80
612;DHT22;293;53.888;11.464;2023-06-14T06:20:00;39.70;40.30
612;DHT22;293;53.888;11.464;2023-06-14T06:22:28;39.80;39.90
612;DHT22;293;53.888;11.464;2023-06-14T06:24:54;40.00;39.40
612;DHT22;293;53.888;11.464;2023-06-14T06:27:21;40.10;39.80
612;DHT22;293;53.888;11.464;2023-06-14T06:29:48;40.10;39.30
612;DHT22;293;53.888;11.464;2023-06-14T06:32:15;40.00;38.60
612;DHT22;293;53.888;11.464;2023-06-14T06:34:43;39.90;39.10
612;DHT22;293;53.888;11.464;2023-06-14T06:37:10;39.90;38.50
612;DHT22;293;53.888;11.464;2023-06-14T06:39:37;39.70;38.80
612;DHT22;293;53.888;11.464;2023-06-14T06:42:04;39.80;39.30
612;DHT22;293;53.888;11.464;2023-06-14T06:44:32;40.00;39.50
612;DHT22;293;53.888;11.464;2023-06-14T06:46:59;40.20;39.10
612;DHT22;293;53.888;11.464;2023-06-14T06:49:25;40.20;38.30
612;DHT22;293;53.888;11.464;2023-06-14T06:52:04;40.00;38.50
612;DHT22;293;53.888;11.464;2023-06-14T06:54:32;39.70;38.80
612;DHT22;293;53.888;11.464;2023-06-14T06:56:59;39.40;38.70
612;DHT22;293;53.888;11.464;2023-06-14T06:59:27;38.50;39.00
612;DHT22;293;53.888;11.464;2023-06-14T07:01:54;37.10;41.60
612;DHT22;293;53.888;11.464;2023-06-14T07:04:21;35.60;42.10
612;DHT22;293;53.888;11.464;2023-06-14T07:06:49;34.10;44.30
612;DHT22;293;53.888;11.464;2023-06-14T07:09:18;32.60;46.70
612;DHT22;293;53.888;11.464;2023-06-14T07:11:47;31.30;49.60
612;DHT22;293;53.888;11.464;2023-06-14T07:14:14;30.10;52.50
612;DHT22;293;53.888;11.464;2023-06-14T07:16:41;28.90;54.40
612;DHT22;293;53.888;11.464;2023-06-14T07:19:08;27.90;57.20
612;DHT22;293;53.888;11.464;2023-06-14T07:21:36;27.00;59.20
612;DHT22;293;53.888;11.464;2023-06-14T07:24:05;26.30;61.30
612;DHT22;293;53.888;11.464;2023-06-14T07:26:34;25.70;63.30
612;DHT22;293;53.888;11.464;2023-06-14T07:29:02;25.30;64.80
612;DHT22;293;53.888;11.464;2023-06-14T07:31:28;25.00;65.80
612;DHT22;293;53.888;11.464;2023-06-14T07:33:56;24.60;66.50
612;DHT22;293;53.888;11.464;2023-06-14T07:36:22;24.30;67.10
612;DHT22;293;53.888;11.464;2023-06-14T07:38:49;24.10;68.30
612;DHT22;293;53.888;11.464;2023-06-14T07:41:16;23.80;69.10
612;DHT22;293;53.888;11.464;2023-06-14T07:43:44;23.70;69.90
612;DHT22;293;53.888;11.464;2023-06-14T07:46:11;23.50;71.30
612;DHT22;293;53.888;11.464;2023-06-14T07:48:38;23.40;72.10
612;DHT22;293;53.888;11.464;2023-06-14T07:51:05;23.30;72.20
612;DHT22;293;53.888;11.464;2023-06-14T07:53:32;23.20;73.40
612;DHT22;293;53.888;11.464;2023-06-14T07:55:59;23.10;73.20
612;DHT22;293;53.888;11.464;2023-06-14T07:58:26;23.00;74.60
612;DHT22;293;53.888;11.464;2023-06-14T08:00:55;22.80;75.60
612;DHT22;293;53.888;11.464;2023-06-14T08:03:21;22.70;76.30
612;DHT22;293;53.888;11.464;2023-06-14T08:05:49;22.60;77.60
612;DHT22;293;53.888;11.464;2023-06-14T08:08:16;22.50;78.00
612;DHT22;293;53.888;11.464;2023-06-14T08:10:44;22.20;77.00
612;DHT22;293;53.888;11.464;2023-06-14T08:13:11;22.20;77.60
612;DHT22;293;53.888;11.464;2023-06-14T08:15:38;22.20;77.70
612;DHT22;293;53.888;11.464;2023-06-14T08:18:06;22.20;77.70
612;DHT22;293;53.888;11.464;2023-06-14T08:20:33;22.20;78.00
612;DHT22;293;53.888;11.464;2023-06-14T08:23:01;22.20;78.50
612;DHT22;293;53.888;11.464;2023-06-14T08:25:29;22.10;79.00
612;DHT22;293;53.888;11.464;2023-06-14T08:27:56;22.00;80.00
612;DHT22;293;53.888;11.464;2023-06-14T08:30:23;22.00;81.10
612;DHT22;293;53.888;11.464;2023-06-14T08:32:50;22.00;81.20
612;DHT22;293;53.888;11.464;2023-06-14T08:35:19;21.80;81.80
612;DHT22;293;53.888;11.464;2023-06-14T08:37:45;22.00;82.30
612;DHT22;293;53.888;11.464;2023-06-14T08:40:18;22.00;81.90
612;DHT22;293;53.888;11.464;2023-06-14T08:42:50;22.00;82.10
612;DHT22;293;53.888;11.464;2023-06-14T08:45:18;22.00;82.60
612;DHT22;293;53.888;11.464;2023-06-14T08:47:45;22.10;82.40
612;DHT22;293;53.888;11.464;2023-06-14T08:50:12;22.10;82.30
612;DHT22;293;53.888;11.464;2023-06-14T08:52:45;22.10;82.40
612;DHT22;293;53.888;11.464;2023-06-14T08:55:16;22.10;82.80
612;DHT22;293;53.888;11.464;2023-06-14T08:57:46;22.10;83.50
612;DHT22;293;53.888;11.464;2023-06-14T09:00:14;22.10;83.20
612;DHT22;293;53.888;11.464;2023-06-14T09:02:41;22.30;83.10
612;DHT22;293;53.888;11.464;2023-06-14T09:05:09;22.50;82.60
612;DHT22;293;53.888;11.464;2023-06-14T09:07:36;22.70;81.40
612;DHT22;293;53.888;11.464;2023-06-14T09:10:10;22.70;80.50
612;DHT22;293;53.888;11.464;2023-06-14T09:12:37;22.70;80.80
612;DHT22;293;53.888;11.464;2023-06-14T09:15:06;22.70;80.70
612;DHT22;293;53.888;11.464;2023-06-14T09:17:34;22.70;79.80
612;DHT22;293;53.888;11.464;2023-06-14T09:20:02;22.70;78.60
612;DHT22;293;53.888;11.464;2023-06-14T09:22:32;22.80;77.90
612;DHT22;293;53.888;11.464;2023-06-14T09:24:59;22.80;77.00
612;DHT22;293;53.888;11.464;2023-06-14T09:27:28;22.80;77.40
612;DHT22;293;53.888;11.464;2023-06-14T09:29:55;22.80;77.20
612;DHT22;293;53.888;11.464;2023-06-14T09:32:22;22.90;76.70
612;DHT22;293;53.888;11.464;2023-06-14T09:34:49;22.90;75.80
612;DHT22;293;53.888;11.464;2023-06-14T09:37:27;23.00;75.40
612;DHT22;293;53.888;11.464;2023-06-14T09:39:55;22.90;75.40
612;DHT22;293;53.888;11.464;2023-06-14T09:42:22;23.00;74.30
612;DHT22;293;53.888;11.464;2023-06-14T09:44:53;23.00;73.60
612;DHT22;293;53.888;11.464;2023-06-14T09:47:21;23.10;74.30
612;DHT22;293;53.888;11.464;2023-06-14T09:49:49;23.10;74.00
612;DHT22;293;53.888;11.464;2023-06-14T09:52:18;23.10;74.50
612;DHT22;293;53.888;11.464;2023-06-14T09:54:47;23.00;73.30
612;DHT22;293;53.888;11.464;2023-06-14T09:57:15;23.00;74.30
612;DHT22;293;53.888;11.464;2023-06-14T09:59:43;22.90;73.30
612;DHT22;293;53.888;11.464;2023-06-14T10:02:21;22.90;73.20
612;DHT22;293;53.888;11.464;2023-06-14T10:04:58;23.00;69.00
612;DHT22;293;53.888;11.464;2023-06-14T10:07:34;23.10;68.70
612;DHT22;293;53.888;11.464;2023-06-14T10:10:02;23.20;67.80
612;DHT22;293;53.888;11.464;2023-06-14T10:12:29;23.30;67.60
612;DHT22;293;53.888;11.464;2023-06-14T10:14:56;23.40;67.00
612;DHT22;293;53.888;11.464;2023-06-14T10:17:32;23.60;67.20
612;DHT22;293;53.888;11.464;2023-06-14T10:20:11;23.80;65.90
612;DHT22;293;53.888;11.464;2023-06-14T10:22:45;24.20;66.30
612;DHT22;293;53.888;11.464;2023-06-14T10:25:26;24.40;64.90
612;DHT22;293;53.888;11.464;2023-06-14T10:28:02;24.80;65.10
612;DHT22;293;53.888;11.464;2023-06-14T10:30:29;25.10;63.00
612;DHT22;293;53.888;11.464;2023-06-14T10:33:07;25.30;61.90
612;DHT22;293;53.888;11.464;2023-06-14T10:35:35;25.30;62.90
612;DHT22;293;53.888;11.464;2023-06-14T10:38:09;25.20;64.70
612;DHT22;293;53.888;11.464;2023-06-14T10:40:39;24.70;61.60
612;DHT22;293;53.888;11.464;2023-06-14T10:43:21;23.80;61.40
612;DHT22;293;53.888;11.464;2023-06-14T10:46:14;24.40;62.30
612;DHT22;293;53.888;11.464;2023-06-14T10:48:43;24.20;63.40
612;DHT22;293;53.888;11.464;2023-06-14T10:51:18;24.20;64.10
612;DHT22;293;53.888;11.464;2023-06-14T10:53:47;24.40;62.80
612;DHT22;293;53.888;11.464;2023-06-14T10:56:28;24.50;63.30
612;DHT22;293;53.888;11.464;2023-06-14T10:58:56;24.40;69.30
612;DHT22;293;53.888;11.464;2023-06-14T11:01:32;24.10;70.10
612;DHT22;293;53.888;11.464;2023-06-14T11:04:08;24.10;70.80
612;DHT22;293;53.888;11.464;2023-06-14T11:06:46;23.90;71.80
612;DHT22;293;53.888;11.464;2023-06-14T11:09:51;24.00;70.20
612;DHT22;293;53.888;11.464;2023-06-14T11:12:27;24.00;66.00
612;DHT22;293;53.888;11.464;2023-06-14T11:14:54;24.20;65.30
612;DHT22;293;53.888;11.464;2023-06-14T11:17:21;24.20;64.70
612;DHT22;293;53.888;11.464;2023-06-14T11:19:50;24.10;67.50
612;DHT22;293;53.888;11.464;2023-06-14T11:22:16;24.00;69.40
612;DHT22;293;53.888;11.464;2023-06-14T11:24:43;24.00;69.10
612;DHT22;293;53.888;11.464;2023-06-14T11:27:10;23.90;68.60
612;DHT22;293;53.888;11.464;2023-06-14T11:29:38;23.80;69.80
612;DHT22;293;53.888;11.464;2023-06-14T11:32:07;23.80;71.40
612;DHT22;293;53.888;11.464;2023-06-14T11:34:37;23.70;70.70
612;DHT22;293;53.888;11.464;2023-06-14T11:37:06;23.60;70.80
612;DHT22;293;53.888;11.464;2023-06-14T11:39:33;23.70;70.70
612;DHT22;293;53.888;11.464;2023-06-14T11:42:01;23.70;69.00
612;DHT22;293;53.888;11.464;2023-06-14T11:44:29;23.80;68.80
612;DHT22;293;53.888;11.464;2023-06-14T11:46:56;24.00;69.20
612;DHT22;293;53.888;11.464;2023-06-14T11:49:23;24.20;67.20
612;DHT22;293;53.888;11.464;2023-06-14T11:51:53;24.40;68.00
612;DHT22;293;53.888;11.464;2023-06-14T11:54:22;24.60;65.20
612;DHT22;293;53.888;11.464;2023-06-14T11:56:49;24.60;63.40
612;DHT22;293;53.888;11.464;2023-06-14T11:59:16;24.70;65.30
612;DHT22;293;53.888;11.464;2023-06-14T12:01:43;24.70;61.50
612;DHT22;293;53.888;11.464;2023-06-14T12:04:10;24.60;60.30
612;DHT22;293;53.888;11.464;2023-06-14T12:06:37;24.40;60.10
612;DHT22;293;53.888;11.464;2023-06-14T12:09:05;24.20;61.00
612;DHT22;293;53.888;11.464;2023-06-14T12:11:39;24.00;59.80
612;DHT22;293;53.888;11.464;2023-06-14T12:14:07;23.90;59.40
612;DHT22;293;53.888;11.464;2023-06-14T12:16:37;23.90;58.60
612;DHT22;293;53.888;11.464;2023-06-14T12:19:11;24.00;59.20
612;DHT22;293;53.888;11.464;2023-06-14T12:21:39;24.10;59.40
612;DHT22;293;53.888;11.464;2023-06-14T12:24:07;24.20;59.10
612;DHT22;293;53.888;11.464;2023-06-14T12:26:39;24.20;58.50
612;DHT22;293;53.888;11.464;2023-06-14T12:29:07;24.20;58.70
612;DHT22;293;53.888;11.464;2023-06-14T12:31:34;24.10;58.70
612;DHT22;293;53.888;11.464;2023-06-14T12:34:01;24.10;58.40
612;DHT22;293;53.888;11.464;2023-06-14T12:36:27;24.10;58.10
612;DHT22;293;53.888;11.464;2023-06-14T12:38:54;24.00;58.00
612;DHT22;293;53.888;11.464;2023-06-14T12:41:22;24.00;57.30
612;DHT22;293;53.888;11.464;2023-06-14T12:43:51;24.00;57.60
612;DHT22;293;53.888;11.464;2023-06-14T12:46:18;24.00;57.60
612;DHT22;293;53.888;11.464;2023-06-14T12:48:45;23.90;56.80
612;DHT22;293;53.888;11.464;2023-06-14T12:51:11;23.90;57.00
612;DHT22;293;53.888;11.464;2023-06-14T12:53:38;23.90;57.60
612;DHT22;293;53.888;11.464;2023-06-14T12:56:05;24.00;56.70
612;DHT22;293;53.888;11.464;2023-06-14T12:58:32;23.90;56.50
612;DHT22;293;53.888;11.464;2023-06-14T13:01:00;23.90;56.40
612;DHT22;293;53.888;11.464;2023-06-14T13:03:27;23.80;57.00
612;DHT22;293;53.888;11.464;2023-06-14T13:05:54;23.80;56.30
612;DHT22;293;53.888;11.464;2023-06-14T13:08:21;23.90;56.30
612;DHT22;293;53.888;11.464;2023-06-14T13:10:48;24.00;55.40
612;DHT22;293;53.888;11.464;2023-06-14T13:13:15;24.00;55.80
612;DHT22;293;53.888;11.464;2023-06-14T13:15:42;23.90;55.80
612;DHT22;293;53.888;11.464;2023-06-14T13:18:12;23.90;55.30
612;DHT22;293;53.888;11.464;2023-06-14T13:20:39;24.00;55.10
612;DHT22;293;53.888;11.464;2023-06-14T13:23:06;24.00;55.60
612;DHT22;293;53.888;11.464;2023-06-14T13:25:34;24.00;54.50
612;DHT22;293;53.888;11.464;2023-06-14T13:28:00;23.90;54.70
612;DHT22;293;53.888;11.464;2023-06-14T13:30:27;23.90;54.30
612;DHT22;293;53.888;11.464;2023-06-14T13:32:55;23.80;54.90
612;DHT22;293;53.888;11.464;2023-06-14T13:35:24;23.80;55.80
612;DHT22;293;53.888;11.464;2023-06-14T13:37:51;23.80;54.80
612;DHT22;293;53.888;11.464;2023-06-14T13:40:18;23.80;54.70
612;DHT22;293;53.888;11.464;2023-06-14T13:42:46;23.80;54.60
612;DHT22;293;53.888;11.464;2023-06-14T13:45:13;23.90;54.70
612;DHT22;293;53.888;11.464;2023-06-14T13:47:40;23.80;53.90
612;DHT22;293;53.888;11.464;2023-06-14T13:50:07;23.80;55.00
612;DHT22;293;53.888;11.464;2023-06-14T13:52:36;23.90;54.00
612;DHT22;293;53.888;11.464;2023-06-14T13:55:03;23.90;54.20
612;DHT22;293;53.888;11.464;2023-06-14T13:57:30;23.90;54.20
612;DHT22;293;53.888;11.464;2023-06-14T13:59:58;23.90;53.60
612;DHT22;293;53.888;11.464;2023-06-14T14:02:26;23.80;53.50
612;DHT22;293;53.888;11.464;2023-06-14T14:04:54;23.80;54.00
612;DHT22;293;53.888;11.464;2023-06-14T14:07:21;23.80;54.20
612;DHT22;293;53.888;11.464;2023-06-14T14:09:49;23.90;53.60
612;DHT22;293;53.888;11.464;2023-06-14T14:12:16;24.00;53.60
612;DHT22;293;53.888;11.464;2023-06-14T14:14:43;24.00;53.80
612;DHT22;293;53.888;11.464;2023-06-14T14:17:10;24.00;54.10
612;DHT22;293;53.888;11.464;2023-06-14T14:19:37;24.00;53.50
612;DHT22;293;53.888;11.464;2023-06-14T14:22:05;23.90;52.70
612;DHT22;293;53.888;11.464;2023-06-14T14:24:31;23.90;52.80
612;DHT22;293;53.888;11.464;2023-06-14T14:27:00;23.90;53.20
612;DHT22;293;53.888;11.464;2023-06-14T14:29:27;23.90;53.50
612;DHT22;293;53.888;11.464;2023-06-14T14:31:54;23.90;53.50
612;DHT22;293;53.888;11.464;2023-06-14T14:34:21;23.90;54.00
612;DHT22;293;53.888;11.464;2023-06-14T14:36:48;23.90;54.00
612;DHT22;293;53.888;11.464;2023-06-14T14:39:15;24.00;53.00
612;DHT22;293;53.888;11.464;2023-06-14T14:41:42;24.00;52.70
612;DHT22;293;53.888;11.464;2023-06-14T14:44:10;23.90;52.70
612;DHT22;293;53.888;11.464;2023-06-14T14:46:37;23.90;52.60
612;DHT22;293;53.888;11.464;2023-06-14T14:49:04;23.80;53.20
612;DHT22;293;53.888;11.464;2023-06-14T14:51:31;23.80;52.80
612;DHT22;293;53.888;11.464;2023-06-14T14:53:58;23.90;52.70
612;DHT22;293;53.888;11.464;2023-06-14T14:56:25;23.80;52.50
612;DHT22;293;53.888;11.464;2023-06-14T14:58:52;23.80;52.10
612;DHT22;293;53.888;11.464;2023-06-14T15:01:21;23.70;51.80
612;DHT22;293;53.888;11.464;2023-06-14T15:03:48;23.70;52.00
612;DHT22;293;53.888;11.464;2023-06-14T15:06:15;23.70;52.30
612;DHT22;293;53.888;11.464;2023-06-14T15:08:43;23.70;51.40
612;DHT22;293;53.888;11.464;2023-06-14T15:11:10;23.70;52.00
612;DHT22;293;53.888;11.464;2023-06-14T15:13:45;23.70;52.10
612;DHT22;293;53.888;11.464;2023-06-14T15:16:12;23.60;51.70
612;DHT22;293;53.888;11.464;2023-06-14T15:18:41;23.60;52.50
612;DHT22;293;53.888;11.464;2023-06-14T15:21:08;23.60;51.50
612;DHT22;293;53.888;11.464;2023-06-14T15:23:35;23.60;52.50
612;DHT22;293;53.888;11.464;2023-06-14T15:26:03;23.70;50.30
612;DHT22;293;53.888;11.464;2023-06-14T15:28:33;22.70;49.60
612;DHT22;293;53.888;11.464;2023-06-14T15:31:00;23.70;50.70
612;DHT22;293;53.888;11.464;2023-06-14T15:33:27;23.70;50.20
612;DHT22;293;53.888;11.464;2023-06-14T15:35:55;23.70;49.80
612;DHT22;293;53.888;11.464;2023-06-14T15:38:22;23.60;50.10
612;DHT22;293;53.888;11.464;2023-06-14T15:40:49;23.60;49.10
612;DHT22;293;53.888;11.464;2023-06-14T15:43:16;23.60;49.60
612;DHT22;293;53.888;11.464;2023-06-14T15:45:42;23.60;50.20
612;DHT22;293;53.888;11.464;2023-06-14T15:48:10;23.60;50.30
612;DHT22;293;53.888;11.464;2023-06-14T15:50:37;23.60;50.30
612;DHT22;293;53.888;11.464;2023-06-14T15:53:05;23.50;50.60
612;DHT22;293;53.888;11.464;2023-06-14T15:55:32;23.60;50.10
612;DHT22;293;53.888;11.464;2023-06-14T15:57:59;23.60;50.10
612;DHT22;293;53.888;11.464;2023-06-14T16:00:26;23.60;49.50
612;DHT22;293;53.888;11.464;2023-06-14T16:02:53;23.60;50.00
612;DHT22;293;53.888;11.464;2023-06-14T16:05:20;23.50;50.10
612;DHT22;293;53.888;11.464;2023-06-14T16:07:47;23.50;50.30
612;DHT22;293;53.888;11.464;2023-06-14T16:10:15;23.40;50.90
612;DHT22;293;53.888;11.464;2023-06-14T16:12:42;23.30;51.10
612;DHT22;293;53.888;11.464;2023-06-14T16:15:09;23.30;51.00
612;DHT22;293;53.888;11.464;2023-06-14T16:17:36;23.30;50.50
612;DHT22;293;53.888;11.464;2023-06-14T16:20:04;23.20;51.30
612;DHT22;293;53.888;11.464;2023-06-14T16:22:31;23.20;50.90